Time;durP1;ratioP1;P1;durP2;ratioP2;P2;SDS_P1;SDS_P2;PMS_P1;PMS_P2;Temp;Humidity;BMP_temperature;BMP_pressure;BME280_temperature;BME280_humidity;BME280_pressure;Samples;Min_cycle;Max_cycle;Signal;HPM_P1;HPM_P2
2022/09/04 00:01:19;;;;;;;4.15;1.90;;;19.10;91.30;;;;;;5070156;28;20028;-67
2022/09/04 00:04:16;;;;;;;2.47;2.08;;;19.20;91.40;;;;;;5067852;28;20103;-67
2022/09/04 00:06:54;;;;;;;4.18;2.10;;;19.10;91.40;;;;;;5068669;28;20039;-67
2022/09/04 00:09:31;;;;;;;4.13;2.10;;;19.10;91.40;;;;;;5063647;28;20036;-67
2022/09/04 00:12:03;;;;;;;4.78;2.00;;;19.10;91.40;;;;;;5069495;28;20036;-67
2022/09/04 00:14:47;;;;;;;2.65;1.88;;;19.10;91.40;;;;;;5069650;28;20021;-66
2022/09/04 00:17:26;;;;;;;5.65;2.13;;;19.10;91.40;;;;;;5059040;28;20038;-66
2022/09/04 00:19:58;;;;;;;3.92;2.03;;;19.10;91.40;;;;;;5068594;28;20032;-66
2022/09/04 00:22:51;;;;;;;5.45;2.10;;;19.10;91.40;;;;;;5070264;28;20029;-66
2022/09/04 00:25:39;;;;;;;2.78;2.05;;;19.10;91.40;;;;;;5061223;28;20025;-67
2022/09/04 00:28:16;;;;;;;4.00;1.73;;;19.10;91.40;;;;;;5060955;28;20131;-67
2022/09/04 00:30:52;;;;;;;2.53;1.80;;;19.10;91.40;;;;;;5048663;28;20025;-67
2022/09/04 00:33:26;;;;;;;2.25;1.80;;;19.10;91.40;;;;;;5047047;28;20033;-69
2022/09/04 00:35:57;;;;;;;7.03;2.05;;;19.10;91.40;;;;;;5058442;28;20028;-66
2022/09/04 00:38:39;;;;;;;3.63;2.05;;;19.10;91.40;;;;;;5066908;28;20035;-67
2022/09/04 00:41:31;;;;;;;3.65;1.70;;;19.10;91.40;;;;;;5068060;28;20478;-67
2022/09/04 00:44:12;;;;;;;2.58;1.60;;;19.00;91.40;;;;;;5057260;28;20025;-66
2022/09/04 00:47:09;;;;;;;3.20;1.60;;;19.00;91.40;;;;;;5057470;28;20571;-66
2022/09/04 00:49:58;;;;;;;4.05;1.83;;;19.00;91.40;;;;;;5048012;28;20039;-66
2022/09/04 00:52:54;;;;;;;4.38;1.95;;;19.00;91.40;;;;;;5065013;28;20369;-67
2022/09/04 00:55:54;;;;;;;5.18;1.80;;;19.00;91.40;;;;;;5062079;28;20032;-66
2022/09/04 00:58:49;;;;;;;4.18;1.92;;;19.00;91.40;;;;;;5042206;28;20125;-67
2022/09/04 01:01:21;;;;;;;5.95;2.08;;;19.00;91.50;;;;;;5064778;28;20021;-67
2022/09/04 01:04:15;;;;;;;2.47;1.55;;;19.00;91.50;;;;;;5043636;28;20168;-67
2022/09/04 01:06:59;;;;;;;3.65;1.60;;;19.00;91.40;;;;;;5062021;28;20102;-67
2022/09/04 01:09:51;;;;;;;3.65;1.90;;;19.00;91.40;;;;;;5062152;28;20380;-66
2022/09/04 01:12:42;;;;;;;3.83;1.75;;;19.00;91.40;;;;;;5041503;28;20036;-67
2022/09/04 01:15:20;;;;;;;3.13;2.10;;;19.00;91.40;;;;;;5042074;28;20025;-66
2022/09/04 01:18:06;;;;;;;6.97;2.40;;;19.00;91.40;;;;;;5064821;28;20028;-67
2022/09/04 01:20:55;;;;;;;6.25;2.25;;;19.00;91.50;;;;;;5068795;28;20051;-66
2022/09/04 01:23:51;;;;;;;4.82;2.20;;;19.00;91.50;;;;;;5062912;28;20025;-67
2022/09/04 01:26:33;;;;;;;4.90;2.20;;;19.00;91.50;;;;;;5064746;28;20076;-67
2022/09/04 01:29:27;;;;;;;2.42;1.92;;;19.00;91.40;;;;;;5064387;28;20108;-67
2022/09/04 01:32:26;;;;;;;3.50;2.00;;;19.00;91.50;;;;;;5066037;28;20021;-67
2022/09/04 01:35:21;;;;;;;4.53;2.57;;;19.00;91.50;;;;;;5065727;28;20025;-66
2022/09/04 01:38:11;;;;;;;3.95;2.50;;;19.00;91.80;;;;;;5064761;28;20277;-67
2022/09/04 01:40:41;;;;;;;;;;;18.90;91.40;;;;;;5063640;28;20017;-67
2022/09/04 01:43:10;;;;;;;8.05;2.13;;;19.00;91.50;;;;;;5065147;28;20381;-66
2022/09/04 01:46:03;;;;;;;5.67;2.43;;;19.00;91.50;;;;;;5043465;28;20386;-66
2022/09/04 01:48:42;;;;;;;3.67;2.22;;;19.00;91.50;;;;;;5060499;28;20047;-66
2022/09/04 01:51:24;;;;;;;4.05;2.25;;;18.90;91.50;;;;;;5064672;28;20066;-66
2022/09/04 01:54:04;;;;;;;4.45;2.38;;;18.90;91.50;;;;;;5066387;28;20075;-66
2022/09/04 01:56:49;;;;;;;3.92;2.50;;;18.90;91.50;;;;;;5065024;28;20025;-66
2022/09/04 01:59:34;;;;;;;3.67;2.20;;;18.90;91.50;;;;;;5066465;28;20029;-67
2022/09/04 02:02:27;;;;;;;3.15;2.40;;;18.90;91.50;;;;;;5065464;28;20116;-67
2022/09/04 02:13:43;;;;;;;4.00;2.20;;;18.90;91.50;;;;;;3928657;26;20129;-63
2022/09/04 02:16:47;;;;;;;4.50;2.78;;;18.90;91.50;;;;;;5029700;28;20052;-62
2022/09/04 02:19:31;;;;;;;2.30;2.10;;;18.90;91.50;;;;;;5024941;28;20037;-62
2022/09/04 02:22:55;;;;;;;4.90;2.17;;;18.90;91.50;;;;;;5024592;28;20037;-62
2022/09/04 02:25:26;;;;;;;3.25;2.00;;;18.90;91.50;;;;;;4943710;29;20023;-65
2022/09/04 02:28:16;;;;;;;2.45;1.90;;;18.80;91.50;;;;;;4928177;29;20482;-65
2022/09/04 02:30:50;;;;;;;2.30;1.80;;;18.90;91.50;;;;;;4919195;29;20039;-65
2022/09/04 02:33:38;;;;;;;3.97;2.10;;;18.90;91.50;;;;;;4928340;29;20035;-65
2022/09/04 02:36:15;;;;;;;3.45;2.25;;;18.80;91.50;;;;;;4935020;29;20082;-65
2022/09/04 02:39:01;;;;;;;4.32;1.90;;;18.90;91.50;;;;;;4938265;29;20043;-65
2022/09/04 02:41:49;;;;;;;2.85;2.00;;;18.80;91.50;;;;;;4937796;29;20081;-65
2022/09/04 02:44:52;;;;;;;3.03;2.10;;;18.80;91.50;;;;;;4953548;29;20126;-65
2022/09/04 02:48:02;;;;;;;5.15;2.17;;;18.80;91.50;;;;;;4953784;29;20078;-65
2022/09/04 02:50:54;;;;;;;5.43;2.17;;;18.80;91.50;;;;;;4904118;29;20567;-65
2022/09/04 02:53:49;;;;;;;9.20;2.35;;;18.80;91.50;;;;;;4937495;29;20092;-65
2022/09/04 02:56:57;;;;;;;6.80;2.05;;;18.80;91.50;;;;;;4975335;28;20039;-65
2022/09/04 02:59:46;;;;;;;3.45;1.92;;;18.80;91.50;;;;;;4980999;28;20039;-65
2022/09/04 03:02:23;;;;;;;2.85;1.92;;;18.80;91.50;;;;;;4989987;28;20487;-65
2022/09/04 03:04:55;;;;;;;3.10;2.25;;;18.80;91.50;;;;;;4975378;28;20561;-65
2022/09/04 03:07:33;;;;;;;4.30;2.00;;;18.80;91.50;;;;;;4956985;28;20098;-65
2022/09/04 03:10:15;;;;;;;3.67;2.05;;;18.80;91.50;;;;;;4972562;28;20106;-65
2022/09/04 03:12:50;;;;;;;2.95;1.95;;;18.80;91.50;;;;;;4965885;28;20039;-65
2022/09/04 03:15:33;;;;;;;3.78;2.38;;;18.80;91.50;;;;;;4974841;28;20038;-65
2022/09/04 03:18:14;;;;;;;3.72;2.10;;;18.80;91.50;;;;;;4991381;28;20030;-65
2022/09/04 03:20:50;;;;;;;2.92;2.00;;;18.80;91.50;;;;;;4995531;28;20044;-65
2022/09/04 03:23:21;;;;;;;3.70;2.25;;;18.80;91.50;;;;;;5059759;28;20074;-65
2022/09/04 03:26:09;;;;;;;3.80;1.95;;;18.80;91.50;;;;;;5072663;28;20036;-66
2022/09/04 03:28:42;;;;;;;3.30;2.00;;;18.80;91.50;;;;;;5055455;28;20091;-65
2022/09/04 03:31:35;;;;;;;3.10;2.05;;;18.80;91.50;;;;;;5060673;28;20085;-63
2022/09/04 03:34:06;;;;;;;3.28;2.20;;;18.80;91.50;;;;;;5069092;28;20028;-63
2022/09/04 03:36:52;;;;;;;4.00;2.72;;;18.80;91.50;;;;;;5054988;28;20031;-63
2022/09/04 03:39:32;;;;;;;4.75;2.53;;;18.80;91.50;;;;;;5052380;28;20059;-63
2022/09/04 03:42:06;;;;;;;7.25;3.38;;;18.70;91.50;;;;;;5041328;28;20528;-63
2022/09/04 03:44:59;;;;;;;3.85;2.78;;;18.70;91.50;;;;;;5070835;28;20052;-63
2022/09/04 03:47:37;;;;;;;7.82;3.17;;;18.70;91.50;;;;;;5041621;28;20505;-63
2022/09/04 03:50:15;;;;;;;4.82;2.63;;;18.70;91.50;;;;;;5054921;28;20032;-63
2022/09/04 03:52:58;;;;;;;3.17;2.20;;;18.70;91.40;;;;;;5033287;28;20026;-63
2022/09/04 03:55:46;;;;;;;3.20;2.35;;;18.80;91.50;;;;;;5049700;28;20044;-63
2022/09/04 03:58:39;;;;;;;5.57;2.83;;;18.70;91.50;;;;;;5054243;28;20020;-63
2022/09/04 04:01:17;;;;;;;3.53;2.60;;;18.70;91.50;;;;;;5054180;28;20040;-63
2022/09/04 04:04:02;;;;;;;3.38;2.40;;;18.70;91.50;;;;;;5064378;28;20031;-63
2022/09/04 04:06:45;;;;;;;5.68;2.20;;;18.70;91.40;;;;;;5029382;28;20123;-63
2022/09/04 04:09:55;;;;;;;3.60;2.45;;;18.70;91.80;;;;;;5048536;28;20029;-63
2022/09/04 04:12:51;;;;;;;2.88;2.40;;;18.70;91.40;;;;;;4974648;28;20038;-63
2022/09/04 04:15:23;;;;;;;2.45;2.17;;;18.70;91.40;;;;;;5059941;28;20505;-63
2022/09/04 04:18:03;;;;;;;7.57;2.63;;;18.70;91.40;;;;;;5057396;28;20016;-63
2022/09/04 04:20:51;;;;;;;5.85;2.50;;;18.70;91.40;;;;;;5061824;28;20033;-63
2022/09/04 04:23:55;;;;;;;6.80;2.60;;;18.70;91.40;;;;;;5056850;28;20036;-63
2022/09/04 04:26:43;;;;;;;5.00;2.45;;;18.70;91.40;;;;;;5071666;28;20040;-63
2022/09/04 04:29:39;;;;;;;3.85;2.08;;;18.70;91.40;;;;;;5049675;28;20501;-63
2022/09/04 04:32:29;;;;;;;3.58;2.53;;;18.70;91.40;;;;;;5053974;28;20025;-63
2022/09/04 04:35:11;;;;;;;;;;;18.60;91.40;;;;;;5031867;28;20051;-63
2022/09/04 04:37:50;;;;;;;2.78;2.30;;;18.70;91.40;;;;;;5033031;28;19904;-63
2022/09/04 04:40:53;;;;;;;5.53;1.80;;;18.70;91.40;;;;;;5033868;28;20033;-64
2022/09/04 04:43:28;;;;;;;2.65;1.92;;;18.60;91.40;;;;;;5033999;28;20503;-63
2022/09/04 04:45:54;;;;;;;3.38;2.17;;;18.60;91.30;;;;;;5033269;28;20489;-63
2022/09/04 04:48:29;;;;;;;5.05;2.30;;;18.60;91.70;;;;;;5051540;28;20025;-63
2022/09/04 04:51:39;;;;;;;5.40;2.50;;;18.60;91.30;;;;;;5060583;28;20029;-63
2022/09/04 05:00:51;;;;;;;4.70;2.33;;;18.60;91.30;;;;;;4996880;28;20041;-63
2022/09/04 05:04:01;;;;;;;3.63;2.22;;;18.60;91.30;;;;;;4997021;28;20058;-63
2022/09/04 05:07:01;;;;;;;5.00;2.40;;;18.60;91.30;;;;;;5006913;28;20044;-63
2022/09/04 05:09:59;;;;;;;2.72;2.17;;;18.60;91.30;;;;;;5018235;28;20514;-63
2022/09/04 05:12:28;;;;;;;3.97;2.03;;;18.60;91.30;;;;;;5015847;28;20030;-63
2022/09/04 05:15:09;;;;;;;3.90;2.60;;;18.60;91.30;;;;;;5000384;28;20034;-63
2022/09/04 05:17:49;;;;;;;3.15;2.25;;;18.60;91.30;;;;;;5019079;28;20442;-63
2022/09/04 05:20:51;;;;;;;2.30;1.90;;;18.60;91.30;;;;;;5012787;28;20034;-63
2022/09/04 05:23:55;;;;;;;1.85;1.60;;;18.60;91.40;;;;;;4960454;28;20031;-63
2022/09/04 05:26:47;;;;;;;6.43;1.80;;;18.60;91.30;;;;;;4954525;28;20577;-63
2022/09/04 05:29:23;;;;;;;2.22;1.73;;;18.60;91.30;;;;;;4936670;28;20035;-63
2022/09/04 05:32:16;;;;;;;2.72;1.80;;;18.60;91.30;;;;;;5006806;28;20121;-63
2022/09/04 05:35:16;;;;;;;2.78;1.65;;;18.60;91.30;;;;;;4994433;28;20034;-63
2022/09/04 05:42:02;;;;;;;3.50;1.83;;;18.60;91.30;;;;;;4997703;28;20041;-63
2022/09/04 05:44:36;;;;;;;2.42;1.90;;;18.60;91.30;;;;;;4963631;28;20508;-63
2022/09/04 05:47:28;;;;;;;2.92;1.60;;;18.60;91.30;;;;;;4976252;28;20126;-63
2022/09/04 05:50:31;;;;;;;2.85;1.83;;;18.60;91.30;;;;;;4977263;28;20039;-63
2022/09/04 05:53:24;;;;;;;1.88;1.42;;;18.60;91.20;;;;;;4970856;28;20030;-63
2022/09/04 05:56:14;;;;;;;2.83;1.73;;;18.60;91.20;;;;;;5018868;28;20026;-63
2022/09/04 05:59:04;;;;;;;1.90;1.65;;;18.70;91.20;;;;;;5036513;28;20029;-63
2022/09/04 06:01:54;;;;;;;2.47;1.95;;;18.70;91.20;;;;;;5015175;28;20022;-63
2022/09/04 06:04:44;;;;;;;4.17;1.87;;;18.70;91.10;;;;;;5013029;28;20042;-63
2022/09/04 06:07:26;;;;;;;3.63;2.10;;;18.80;91.10;;;;;;5014031;28;20056;-63
2022/09/04 06:10:10;;;;;;;2.10;1.70;;;18.80;91.10;;;;;;5019413;28;20030;-63
2022/09/04 06:13:03;;;;;;;4.85;1.90;;;18.80;91.10;;;;;;4996049;28;20152;-63
2022/09/04 06:15:50;;;;;;;3.83;2.03;;;18.80;91.10;;;;;;5029527;28;20545;-63
2022/09/04 06:18:35;;;;;;;3.42;2.00;;;18.90;91.10;;;;;;5040725;28;20477;-64
2022/09/04 06:21:27;;;;;;;5.57;2.30;;;18.90;91.10;;;;;;5048103;28;20021;-63
2022/09/04 06:24:23;;;;;;;3.33;1.70;;;19.00;91.10;;;;;;5056798;28;20115;-63
2022/09/04 06:27:07;;;;;;;3.40;1.98;;;19.00;91.10;;;;;;5050255;28;20448;-63
2022/09/04 06:29:55;;;;;;;3.60;2.03;;;19.00;91.00;;;;;;5051918;28;20021;-63
2022/09/04 06:32:55;;;;;;;4.43;2.10;;;19.10;91.00;;;;;;5058549;28;20107;-63
2022/09/04 06:35:48;;;;;;;2.85;1.92;;;19.20;91.00;;;;;;5052116;28;20104;-63
2022/09/04 06:38:22;;;;;;;6.65;1.98;;;19.30;91.00;;;;;;5048512;28;20036;-63
2022/09/04 06:41:09;;;;;;;5.15;2.40;;;19.30;91.00;;;;;;5045644;28;20029;-64
2022/09/04 06:44:06;;;;;;;3.45;2.40;;;19.30;90.90;;;;;;5052041;28;20039;-64
2022/09/04 06:46:50;;;;;;;4.32;2.55;;;19.40;91.00;;;;;;5042913;28;20084;-63
2022/09/04 06:49:41;;;;;;;4.43;2.55;;;19.50;90.90;;;;;;5037052;28;20029;-63
2022/09/04 06:52:37;;;;;;;2.80;2.33;;;19.50;90.90;;;;;;5036756;28;20022;-63
2022/09/04 06:55:48;;;;;;;4.55;2.40;;;19.60;90.90;;;;;;5034250;28;20144;-63
2022/09/04 06:58:37;;;;;;;4.03;2.58;;;19.70;90.90;;;;;;5030540;28;20364;-63
2022/09/04 07:01:10;;;;;;;3.50;2.42;;;19.80;90.80;;;;;;5016627;28;20040;-63
2022/09/04 07:03:51;;;;;;;5.10;2.40;;;19.80;90.80;;;;;;5044365;28;20025;-63
2022/09/04 07:06:20;;;;;;;4.22;2.60;;;19.90;90.80;;;;;;5040954;28;20516;-63
2022/09/04 07:08:48;;;;;;;2.63;2.08;;;20.00;90.70;;;;;;5046901;28;20025;-63
2022/09/04 07:11:45;;;;;;;4.05;2.38;;;20.00;90.70;;;;;;5056108;28;20021;-63
2022/09/04 07:14:23;;;;;;;3.80;2.38;;;20.10;90.70;;;;;;5072850;28;20040;-63
2022/09/04 07:17:28;;;;;;;5.10;2.67;;;20.20;90.70;;;;;;5050316;28;20017;-63
2022/09/04 07:19:56;;;;;;;3.97;2.45;;;20.20;90.50;;;;;;5020510;28;20509;-63
2022/09/04 07:22:38;;;;;;;4.50;2.60;;;20.30;90.50;;;;;;5061242;28;20094;-64
2022/09/04 07:25:10;;;;;;;3.85;2.70;;;20.30;90.40;;;;;;5061230;28;20572;-63
2022/09/04 07:27:54;;;;;;;7.88;3.20;;;20.40;90.40;;;;;;5047795;28;20037;-63
2022/09/04 07:30:24;;;;;;;6.40;3.45;;;20.50;90.40;;;;;;5062067;28;20033;-63
2022/09/04 07:33:31;;;;;;;4.88;2.92;;;20.50;90.40;;;;;;5062297;28;20033;-63
2022/09/04 07:36:26;;;;;;;3.42;2.63;;;20.60;90.40;;;;;;5019949;28;20032;-63
2022/09/04 07:39:29;;;;;;;5.70;2.85;;;20.60;90.40;;;;;;5058362;28;20107;-64
2022/09/04 07:42:01;;;;;;;5.93;3.35;;;20.60;90.30;;;;;;5059277;28;20031;-63
2022/09/04 07:44:53;;;;;;;5.28;3.13;;;20.70;90.30;;;;;;5061551;28;20071;-63
2022/09/04 07:47:41;;;;;;;7.97;4.40;;;20.80;90.30;;;;;;5055471;28;20029;-63
2022/09/04 07:50:17;;;;;;;6.55;3.83;;;20.80;90.50;;;;;;5064739;28;20477;-63
2022/09/04 07:52:57;;;;;;;5.68;3.80;;;20.90;90.10;;;;;;5061106;28;20029;-63
2022/09/04 07:55:36;;;;;;;6.82;3.78;;;20.90;90.10;;;;;;5051226;28;20017;-63
2022/09/04 07:58:21;;;;;;;7.72;4.00;;;20.90;90.00;;;;;;5057226;28;20177;-63
2022/09/04 08:01:12;;;;;;;5.95;4.07;;;21.00;90.10;;;;;;5050928;28;20025;-63
2022/09/04 08:03:48;;;;;;;4.78;2.65;;;20.90;90.50;;;;;;5056479;28;20509;-63
2022/09/04 08:06:34;;;;;;;4.07;2.97;;;21.00;90.20;;;;;;5064011;28;20033;-63
2022/09/04 08:09:40;;;;;;;6.00;3.25;;;21.00;90.30;;;;;;5057723;28;20371;-63
2022/09/04 08:12:21;;;;;;;8.00;2.72;;;21.10;90.40;;;;;;5057556;28;20028;-63
2022/09/04 08:15:14;;;;;;;6.43;3.05;;;21.10;90.40;;;;;;5063184;28;20104;-63
2022/09/04 08:18:00;;;;;;;3.22;2.50;;;21.10;90.40;;;;;;5021525;28;20078;-63
2022/09/04 08:20:44;;;;;;;7.65;3.63;;;21.20;90.50;;;;;;5039668;28;20099;-63
2022/09/04 08:23:18;;;;;;;6.22;3.50;;;21.20;90.50;;;;;;5048990;28;20025;-63
2022/09/04 08:25:58;;;;;;;5.93;3.00;;;21.20;90.50;;;;;;5057619;28;20060;-63
2022/09/04 08:28:43;;;;;;;6.03;2.80;;;21.30;90.50;;;;;;5053638;28;20123;-63
2022/09/04 08:31:29;;;;;;;6.47;3.85;;;21.30;90.50;;;;;;5060707;28;20185;-63
2022/09/04 08:34:32;;;;;;;6.60;3.22;;;21.40;90.50;;;;;;5060090;28;20099;-63
2022/09/04 08:37:16;;;;;;;6.30;3.47;;;21.40;90.50;;;;;;5059987;28;20025;-63
2022/09/04 08:40:15;;;;;;;4.43;3.40;;;21.40;90.40;;;;;;5052647;28;20033;-63
2022/09/04 08:43:11;;;;;;;5.28;4.03;;;21.50;90.50;;;;;;5059951;28;20028;-63
2022/09/04 08:45:59;;;;;;;7.93;3.72;;;21.50;90.50;;;;;;5031001;28;20090;-63
2022/09/04 08:48:46;;;;;;;6.60;2.92;;;21.50;90.50;;;;;;5050972;28;20029;-63
2022/09/04 08:51:57;;;;;;;7.38;3.38;;;21.60;90.40;;;;;;5042386;28;20119;-63
2022/09/04 08:54:56;;;;;;;6.85;3.13;;;21.60;90.30;;;;;;5036969;28;20048;-63
2022/09/04 08:57:25;;;;;;;5.72;3.25;;;21.70;90.30;;;;;;5048977;28;20185;-63
2022/09/04 08:59:56;;;;;;;5.68;3.53;;;21.70;90.30;;;;;;5056881;28;20087;-63
2022/09/04 09:02:34;;;;;;;6.22;3.35;;;21.70;90.30;;;;;;5052991;28;20062;-63
2022/09/04 09:05:08;;;;;;;4.55;2.88;;;21.70;90.30;;;;;;5053292;28;20021;-64
2022/09/04 09:08:11;;;;;;;6.05;2.80;;;21.70;90.20;;;;;;5041971;28;20446;-63
2022/09/04 09:10:59;;;;;;;4.20;3.08;;;21.80;90.30;;;;;;5056112;28;20053;-63
2022/09/04 09:14:21;;;;;;;6.43;3.72;;;21.80;90.30;;;;;;5054779;28;20025;-63
2022/09/04 09:17:23;;;;;;;4.97;2.40;;;21.80;90.20;;;;;;4997441;28;20018;-63
2022/09/04 09:20:01;;;;;;;4.70;2.58;;;21.80;90.10;;;;;;5001676;28;20026;-63
2022/09/04 09:22:39;;;;;;;4.38;2.60;;;21.80;90.10;;;;;;4998674;28;20584;-64
2022/09/04 09:25:39;;;;;;;3.03;2.33;;;21.80;90.10;;;;;;5002386;28;20112;-64
2022/09/04 09:28:16;;;;;;;3.40;2.30;;;21.90;90.10;;;;;;4996445;28;20051;-63
2022/09/04 09:30:59;;;;;;;4.85;2.15;;;21.80;90.20;;;;;;5006368;28;20030;-62
2022/09/04 09:33:36;;;;;;;6.00;2.10;;;21.80;90.10;;;;;;4996745;28;20061;-63
2022/09/04 09:36:39;;;;;;;3.30;2.30;;;21.90;90.20;;;;;;5006447;28;20057;-65
2022/09/04 09:39:37;;;;;;;5.00;2.88;;;21.90;90.30;;;;;;5006331;28;20030;-62
2022/09/04 09:42:48;;;;;;;4.35;2.83;;;21.80;90.30;;;;;;5007571;28;20030;-63
2022/09/04 09:45:16;;;;;;;3.60;2.33;;;21.70;90.30;;;;;;4995030;28;20144;-62
2022/09/04 09:48:00;;;;;;;5.03;1.85;;;21.70;90.20;;;;;;5024911;28;20509;-63
2022/09/04 09:51:10;;;;;;;5.07;2.20;;;21.70;90.30;;;;;;5056083;28;20028;-62
2022/09/04 09:53:51;;;;;;;3.38;2.03;;;21.70;90.30;;;;;;5052519;28;20021;-62
2022/09/04 09:56:28;;;;;;;2.60;1.95;;;21.70;90.30;;;;;;5064130;28;20032;-63
2022/09/04 09:59:13;;;;;;;2.85;2.10;;;21.60;90.40;;;;;;5055781;28;20028;-62
2022/09/04 10:01:57;;;;;;;2.75;2.25;;;21.60;90.40;;;;;;5048339;28;20017;-63
2022/09/04 10:04:38;;;;;;;6.00;2.10;;;21.60;90.40;;;;;;5056287;28;20010;-62
2022/09/04 10:07:28;;;;;;;3.28;2.60;;;21.50;90.40;;;;;;5067521;28;20056;-63
2022/09/04 10:10:37;;;;;;;4.68;2.22;;;21.60;90.50;;;;;;5062336;28;20111;-62
2022/09/04 10:13:34;;;;;;;3.88;1.98;;;21.60;90.60;;;;;;5017431;28;20433;-63
2022/09/04 10:16:21;;;;;;;3.05;2.22;;;21.50;90.50;;;;;;5055354;28;20062;-63
2022/09/04 10:19:05;;;;;;;10.98;1.90;;;21.50;90.40;;;;;;5056726;28;20040;-63
2022/09/04 10:21:49;;;;;;;4.30;1.90;;;21.50;90.40;;;;;;5051655;28;20374;-63
2022/09/04 10:24:34;;;;;;;2.35;1.85;;;21.50;90.30;;;;;;5060489;28;20155;-63
2022/09/04 10:27:25;;;;;;;4.40;2.00;;;21.40;90.20;;;;;;5053447;28;20450;-63
2022/09/04 10:30:12;;;;;;;6.05;2.00;;;21.40;90.20;;;;;;5054502;28;20024;-64
2022/09/04 10:32:53;;;;;;;3.05;2.00;;;21.40;90.20;;;;;;5051830;28;20032;-63
2022/09/04 10:35:38;;;;;;;4.28;2.25;;;21.50;90.20;;;;;;5066159;28;20156;-63
2022/09/04 10:38:06;;;;;;;3.58;1.88;;;21.40;90.20;;;;;;5053599;28;20506;-63
2022/09/04 10:41:11;;;;;;;2.17;1.90;;;21.30;90.30;;;;;;5021832;28;20493;-63
2022/09/04 10:43:42;;;;;;;4.93;1.70;;;21.30;90.40;;;;;;5052956;28;20025;-63
2022/09/04 10:46:43;;;;;;;2.10;1.45;;;21.20;90.50;;;;;;5052027;28;20108;-63
2022/09/04 10:49:15;;;;;;;3.25;1.73;;;21.20;90.50;;;;;;5056584;28;20039;-63
2022/09/04 10:52:12;;;;;;;6.82;2.08;;;21.20;90.60;;;;;;5045839;28;20366;-63
2022/09/04 10:54:47;;;;;;;5.00;1.63;;;21.20;90.70;;;;;;5018037;28;20351;-63
2022/09/04 10:57:41;;;;;;;5.85;1.77;;;21.10;90.70;;;;;;5051325;28;20028;-63
2022/09/04 11:00:10;;;;;;;3.55;1.50;;;21.10;90.80;;;;;;5052581;28;20092;-62
2022/09/04 11:02:48;;;;;;;1.75;1.20;;;21.10;90.80;;;;;;5051211;28;20016;-63
2022/09/04 11:05:36;;;;;;;1.92;1.50;;;21.10;90.80;;;;;;5049767;28;20028;-63
2022/09/04 11:08:22;;;;;;;6.80;1.40;;;21.10;90.80;;;;;;5050682;28;20119;-62
2022/09/04 11:11:10;;;;;;;1.98;1.80;;;21.00;90.70;;;;;;5044992;28;20490;-62
2022/09/04 11:13:55;;;;;;;4.90;1.95;;;21.00;90.80;;;;;;5025936;28;20116;-63
2022/09/04 11:17:01;;;;;;;7.25;3.03;;;21.00;90.80;;;;;;5036036;28;20029;-63
2022/09/04 11:19:51;;;;;;;10.85;3.47;;;21.00;90.70;;;;;;5040479;28;20060;-63
2022/09/04 11:22:44;;;;;;;8.10;2.30;;;21.00;90.80;;;;;;5013237;28;20064;-63
2022/09/04 11:25:38;;;;;;;10.27;5.20;;;21.00;90.80;;;;;;5029037;28;20160;-63
2022/09/04 11:28:39;;;;;;;5.55;3.20;;;21.00;90.80;;;;;;5025955;28;20037;-63
2022/09/04 11:31:08;;;;;;;8.80;3.38;;;21.00;90.80;;;;;;5025804;28;20025;-63
2022/09/04 11:34:07;;;;;;;7.60;4.00;;;20.90;90.70;;;;;;5030047;28;20037;-63
2022/09/04 11:36:42;;;;;;;4.07;2.55;;;21.00;90.70;;;;;;5036088;28;20020;-63
2022/09/04 11:39:24;;;;;;;6.95;3.25;;;20.90;90.60;;;;;;5028874;28;20029;-63
2022/09/04 11:42:09;;;;;;;2.58;2.08;;;21.00;90.50;;;;;;5028396;28;20033;-63
2022/09/04 11:44:45;;;;;;;1.55;1.45;;;20.90;90.50;;;;;;5038713;28;20282;-63
2022/09/04 11:47:47;;;;;;;3.78;1.50;;;20.90;90.40;;;;;;5024647;28;20049;-63
2022/09/04 11:50:56;;;;;;;5.40;1.90;;;21.00;90.50;;;;;;5036136;28;20040;-63
2022/09/04 11:54:05;;;;;;;3.47;1.50;;;21.10;90.40;;;;;;5040929;28;20483;-63
2022/09/04 11:56:49;;;;;;;2.35;1.60;;;21.10;90.20;;;;;;5021340;28;20514;-63
2022/09/04 11:59:19;;;;;;;1.17;1.05;;;21.10;90.00;;;;;;5031560;28;20095;-63
2022/09/04 12:02:22;;;;;;;1.37;1.27;;;21.10;89.50;;;;;;5037130;28;20026;-63
2022/09/04 12:05:22;;;;;;;3.05;1.98;;;21.10;89.60;;;;;;5037674;28;20109;-63
2022/09/04 12:08:09;;;;;;;2.38;1.60;;;21.20;89.30;;;;;;5022579;28;20041;-63
2022/09/04 12:10:43;;;;;;;4.38;2.70;;;21.20;88.80;;;;;;5028389;28;20033;-63
2022/09/04 12:13:38;;;;;;;8.10;2.65;;;21.20;89.00;;;;;;5036058;28;20528;-63
2022/09/04 12:16:25;;;;;;;5.43;2.30;;;21.20;88.40;;;;;;5048217;28;20023;-63
2022/09/04 12:19:12;;;;;;;5.93;1.80;;;21.30;88.20;;;;;;5042971;28;20111;-63
2022/09/04 12:22:04;;;;;;;1.83;1.48;;;21.30;87.90;;;;;;5048741;28;20082;-63
2022/09/04 12:24:53;;;;;;;1.45;1.23;;;21.30;88.00;;;;;;5053661;28;20029;-63
2022/09/04 12:27:37;;;;;;;2.40;1.63;;;21.30;87.60;;;;;;5041856;28;20216;-64
2022/09/04 12:30:06;;;;;;;1.83;1.10;;;21.30;87.80;;;;;;5043766;28;20079;-63
2022/09/04 12:33:05;;;;;;;1.80;1.50;;;21.20;87.90;;;;;;5039171;28;20024;-63
2022/09/04 12:35:49;;;;;;;2.22;1.52;;;21.30;87.70;;;;;;5053973;28;20427;-63
2022/09/04 12:38:45;;;;;;;2.97;1.67;;;21.30;87.80;;;;;;5046238;28;20034;-63
2022/09/04 12:41:43;;;;;;;5.90;3.15;;;21.20;87.50;;;;;;5036476;28;20049;-63
2022/09/04 12:44:31;;;;;;;2.35;1.73;;;21.20;87.30;;;;;;5043694;28;20053;-63
2022/09/04 12:47:12;;;;;;;3.88;1.83;;;21.30;87.20;;;;;;5001731;28;20486;-63
2022/09/04 12:49:57;;;;;;;10.82;4.38;;;21.30;87.20;;;;;;5048811;28;20091;-63
2022/09/04 12:52:35;;;;;;;6.60;2.70;;;21.30;87.20;;;;;;5040309;28;20036;-63
2022/09/04 12:55:11;;;;;;;5.53;2.28;;;21.40;86.90;;;;;;5045468;28;20392;-63
2022/09/04 12:57:59;;;;;;;1.88;1.52;;;21.40;86.60;;;;;;5054338;28;20064;-63
2022/09/04 13:00:31;;;;;;;2.13;1.60;;;21.40;86.40;;;;;;5045726;28;20082;-63
2022/09/04 13:03:17;;;;;;;2.33;1.58;;;21.40;86.40;;;;;;5042482;28;20025;-63
2022/09/04 13:06:03;;;;;;;2.70;1.58;;;21.30;86.70;;;;;;5048121;28;20029;-63
2022/09/04 13:08:31;;;;;;;2.50;1.70;;;21.30;86.60;;;;;;5044990;28;20498;-63
2022/09/04 13:11:02;;;;;;;2.30;1.70;;;21.30;86.80;;;;;;5048702;28;20021;-63
2022/09/04 13:13:58;;;;;;;3.30;1.40;;;21.30;86.80;;;;;;5061641;28;20497;-63
2022/09/04 13:16:35;;;;;;;2.38;1.35;;;21.30;86.40;;;;;;5026444;28;20126;-63
2022/09/04 13:19:18;;;;;;;2.67;1.67;;;21.30;86.40;;;;;;5054474;28;20362;-63
2022/09/04 13:22:15;;;;;;;1.50;1.40;;;21.40;86.20;;;;;;5052891;28;20542;-63
2022/09/04 13:24:50;;;;;;;3.63;1.60;;;21.40;86.20;;;;;;5061043;28;20021;-63
2022/09/04 13:27:48;;;;;;;4.15;1.23;;;21.40;86.10;;;;;;5052993;28;20043;-63
2022/09/04 13:30:20;;;;;;;2.67;1.30;;;21.40;85.90;;;;;;5055381;28;20143;-63
2022/09/04 13:33:42;;;;;;;2.38;1.38;;;21.40;86.00;;;;;;5061111;28;20103;-63
2022/09/04 13:36:15;;;;;;;1.60;1.10;;;21.40;85.30;;;;;;4987984;28;20060;-63
2022/09/04 13:38:57;;;;;;;6.45;1.30;;;21.40;85.50;;;;;;5036182;28;20452;-63
2022/09/04 13:41:45;;;;;;;1.23;1.20;;;21.40;85.50;;;;;;5053353;28;20025;-63
2022/09/04 13:44:37;;;;;;;1.30;1.00;;;21.40;85.60;;;;;;5054783;28;20036;-63
2022/09/04 13:47:21;;;;;;;6.93;2.88;;;21.40;85.30;;;;;;5054108;28;20477;-63
2022/09/04 13:50:08;;;;;;;3.30;2.10;;;21.40;85.20;;;;;;5061133;28;20104;-63
2022/09/04 13:52:50;;;;;;;2.03;1.60;;;21.40;85.10;;;;;;5063563;28;20040;-63
2022/09/04 13:55:30;;;;;;;2.90;1.65;;;21.40;85.20;;;;;;5060227;28;20025;-63
2022/09/04 13:57:56;;;;;;;1.05;1.05;;;21.30;85.20;;;;;;5055284;28;20039;-63
2022/09/04 14:00:23;;;;;;;2.78;1.65;;;21.30;85.40;;;;;;5052599;28;20029;-63
2022/09/04 14:02:55;;;;;;;1.58;1.48;;;21.30;85.60;;;;;;5057333;28;20029;-63
2022/09/04 14:05:24;;;;;;;2.80;1.52;;;21.30;85.40;;;;;;5057402;28;20398;-63
2022/09/04 14:08:01;;;;;;;1.60;1.40;;;21.30;85.50;;;;;;5059769;28;20064;-63
2022/09/04 14:11:07;;;;;;;1.83;1.30;;;21.30;85.50;;;;;;5054366;28;20100;-63
2022/09/04 14:14:19;;;;;;;1.38;1.20;;;21.30;85.40;;;;;;4993673;28;20077;-63
2022/09/04 14:16:48;;;;;;;2.97;1.60;;;21.30;84.90;;;;;;4988223;28;20579;-63
2022/09/04 14:19:19;;;;;;;2.20;1.40;;;21.30;84.50;;;;;;4982325;28;20105;-63
2022/09/04 14:22:01;;;;;;;2.88;1.27;;;21.30;84.60;;;;;;4990466;28;20690;-63
2022/09/04 14:24:54;;;;;;;2.15;1.50;;;21.30;84.50;;;;;;4989576;28;20034;-63
2022/09/04 14:27:35;;;;;;;2.35;1.30;;;21.30;84.40;;;;;;4984626;28;20416;-63
2022/09/04 14:30:18;;;;;;;2.28;1.52;;;21.30;84.50;;;;;;4989516;28;20112;-63
2022/09/04 14:33:04;;;;;;;1.42;1.33;;;21.30;83.90;;;;;;4989936;28;20113;-63
2022/09/04 14:35:34;;;;;;;3.28;1.67;;;21.30;83.80;;;;;;4989777;28;20372;-63
2022/09/04 14:38:28;;;;;;;1.30;1.10;;;21.20;83.80;;;;;;4984839;28;20118;-63
2022/09/04 14:40:59;;;;;;;2.40;1.23;;;21.20;84.20;;;;;;4989474;28;20046;-63
2022/09/04 14:44:05;;;;;;;3.80;1.63;;;21.20;84.30;;;;;;4988753;28;20034;-63
2022/09/04 14:47:02;;;;;;;2.15;1.73;;;21.20;84.50;;;;;;4992883;28;20097;-63